Terminal Aerodrome Forecast
Issued by NWS

Home | Current Version | Previous Version | Graphics & Text | Print | Product List | Glossary On
Versions: 1 2 3 4 5 6 7 8 9 10 11 12 13 14 15 16 17 18 19 20 21 22 23 24
725
FTUS43 KFGF 132132 AAC
TAFBJI
TAF AMD
KBJI 132132Z 1322/1418 35010KT P6SM BKN015
     FM140200 34007KT P6SM OVC012
     FM140500 31005KT P6SM OVC010
     FM140600 30005KT P6SM OVC008
     FM141700 31008KT P6SM BKN015=

USA.gov is the U.S. government's official web portal to all federal, state and local government web resources and services.